createdAt,value
2019-04-20T00:01:07.462Z,7.43
2019-04-20T00:04:20.494Z,7.10
2019-04-20T00:07:18.710Z,8.30
2019-04-20T00:10:24.234Z,8.57
2019-04-20T00:13:38.402Z,7.00
2019-04-20T00:16:33.784Z,7.53
2019-04-20T00:19:42.496Z,7.97
2019-04-20T00:22:50.434Z,7.80
2019-04-20T00:26:15.867Z,7.80
2019-04-20T00:29:32.196Z,7.60
2019-04-20T00:32:29.594Z,8.10
2019-04-20T00:35:21.047Z,7.43
2019-04-20T00:38:27.992Z,7.90
2019-04-20T00:41:29.788Z,7.20
2019-04-20T00:44:37.620Z,7.30
2019-04-20T00:47:48.944Z,7.60
2019-04-20T00:50:59.274Z,7.67
2019-04-20T00:53:52.381Z,7.30
2019-04-20T00:57:05.753Z,8.93
2019-04-20T01:00:19.811Z,8.67
2019-04-20T01:03:20.924Z,8.83
2019-04-20T01:06:43.825Z,8.43
2019-04-20T01:09:49.965Z,8.20
2019-04-20T01:13:02.376Z,8.03
2019-04-20T01:16:06.231Z,7.67
2019-04-20T01:19:03.927Z,7.73
2019-04-20T01:22:15.805Z,7.83
2019-04-20T01:25:23.072Z,7.77
2019-04-20T01:28:32.952Z,8.00
2019-04-20T01:31:33.613Z,7.57
2019-04-20T01:34:42.667Z,8.43
2019-04-20T01:37:54.391Z,8.53
2019-04-20T01:40:40.232Z,7.83
2019-04-20T01:43:43.908Z,8.80
2019-04-20T01:46:53.520Z,8.57
2019-04-20T01:49:58.573Z,7.60
2019-04-20T01:53:10.207Z,8.00
2019-04-20T01:56:18.347Z,8.30
2019-04-20T01:59:25.317Z,7.57
2019-04-20T02:02:29.551Z,8.67
2019-04-20T02:05:35.879Z,7.73
2019-04-20T02:08:40.066Z,8.13
2019-04-20T02:11:47.293Z,8.20
2019-04-20T02:14:55.246Z,8.73
2019-04-20T02:18:08.927Z,8.73
2019-04-20T02:21:15.101Z,7.90
2019-04-20T02:24:07.391Z,7.87
2019-04-20T02:27:10.381Z,8.37
2019-04-20T02:30:52.950Z,7.97
2019-04-20T02:33:57.366Z,7.90
2019-04-20T02:40:12.767Z,8.10
2019-04-20T02:46:17.095Z,9.37
2019-04-20T02:49:29.235Z,7.67
2019-04-20T02:52:45.342Z,7.30
2019-04-20T02:55:31.224Z,8.70
2019-04-20T02:58:45.523Z,8.23
2019-04-20T03:01:30.682Z,8.00
2019-04-20T03:04:29.012Z,8.03
2019-04-20T03:07:36.806Z,7.93
2019-04-20T03:10:52.514Z,8.23
2019-04-20T03:13:54.576Z,7.90
2019-04-20T03:17:08.684Z,9.10
2019-04-20T03:19:57.405Z,7.43
2019-04-20T03:23:27.824Z,8.30
2019-04-20T03:26:22.456Z,8.13
2019-04-20T03:29:34.879Z,7.83
2019-04-20T03:33:04.371Z,8.33
2019-04-20T03:35:58.725Z,8.20
2019-04-20T03:38:55.035Z,8.00
2019-04-20T03:41:44.437Z,7.50
2019-04-20T03:44:54.245Z,8.50
2019-04-20T03:48:03.021Z,8.23
2019-04-20T03:51:26.812Z,8.63
2019-04-20T03:54:25.207Z,7.77
2019-04-20T03:57:34.383Z,7.87
2019-04-20T04:00:43.251Z,8.83
2019-04-20T04:04:06.642Z,8.50
2019-04-20T04:06:49.996Z,8.13
2019-04-20T04:10:06.962Z,8.43
2019-04-20T04:13:12.239Z,8.70
2019-04-20T04:16:19.828Z,8.23
2019-04-20T04:19:27.968Z,7.90
2019-04-20T04:22:43.726Z,8.23
2019-04-20T04:25:47.481Z,7.97
2019-04-20T04:28:53.440Z,8.13
2019-04-20T04:32:06.623Z,7.30
2019-04-20T04:35:01.669Z,8.53
2019-04-20T04:38:06.970Z,8.10
2019-04-20T04:41:36.331Z,8.23
2019-04-20T04:44:18.007Z,8.87
2019-04-20T04:47:10.459Z,7.97
2019-04-20T04:50:18.306Z,7.77
2019-04-20T04:53:30.208Z,8.40
2019-04-20T04:56:26.829Z,8.47
2019-04-20T04:59:29.683Z,8.20
2019-04-20T05:02:38.023Z,8.17
2019-04-20T05:06:00.496Z,7.33
2019-04-20T05:08:55.042Z,8.00
2019-04-20T05:12:02.770Z,9.23
2019-04-20T05:15:10.135Z,8.10
2019-04-20T05:18:35.762Z,8.63
2019-04-20T05:21:30.214Z,7.63
2019-04-20T05:24:42.336Z,7.00
2019-04-20T05:27:50.890Z,8.10
2019-04-20T05:30:45.594Z,7.73
2019-04-20T05:34:10.855Z,7.03
2019-04-20T05:37:16.351Z,8.07
2019-04-20T05:40:16.492Z,8.37
2019-04-20T05:43:24.679Z,7.97
2019-04-20T05:46:32.086Z,7.57
2019-04-20T05:49:40.255Z,7.13
2019-04-20T05:53:01.747Z,7.50
2019-04-20T05:55:43.294Z,7.30
2019-04-20T05:58:53.591Z,7.43
2019-04-20T06:05:05.655Z,6.60
2019-04-20T06:08:05.172Z,7.37
2019-04-20T06:11:16.448Z,7.43
2019-04-20T06:14:13.271Z,7.53
2019-04-20T06:17:32.021Z,7.83
2019-04-20T06:20:46.747Z,7.50
2019-04-20T06:23:54.884Z,7.53
2019-04-20T06:27:00.654Z,7.47
2019-04-20T06:29:55.868Z,8.23
2019-04-20T06:36:52.647Z,8.17
2019-04-20T06:39:55.757Z,9.43
2019-04-20T06:42:59.721Z,8.70
2019-04-20T06:46:10.301Z,8.00
2019-04-20T06:49:18.347Z,7.30
2019-04-20T06:52:25.124Z,8.33
2019-04-20T06:55:34.445Z,8.13
2019-04-20T06:58:43.809Z,8.68
2019-04-20T07:01:41.969Z,8.88
2019-04-20T07:04:54.444Z,9.15
2019-04-20T07:10:57.856Z,8.63
2019-04-20T07:13:46.848Z,8.58
2019-04-20T07:17:09.630Z,9.10
2019-04-20T07:20:13.949Z,8.53
2019-04-20T07:26:31.822Z,8.80
2019-04-20T07:29:36.744Z,8.67
2019-04-20T07:32:42.684Z,7.63
2019-04-20T07:35:40.129Z,8.07
2019-04-20T07:38:49.927Z,8.30
2019-04-20T07:41:54.653Z,8.47
2019-04-20T07:45:01.338Z,8.17
2019-04-20T07:48:06.123Z,8.53
2019-04-20T07:51:00.673Z,8.20
2019-04-20T07:54:16.555Z,7.70
2019-04-20T07:57:18.371Z,7.93
2019-04-20T08:00:26.330Z,7.83
2019-04-20T08:03:33.578Z,8.30
2019-04-20T08:06:26.410Z,7.67
2019-04-20T08:09:34.170Z,8.80
2019-04-20T08:12:55.649Z,7.67
2019-04-20T08:19:01.390Z,8.20
2019-04-20T08:22:12.328Z,8.40
2019-04-20T08:25:06.936Z,8.50
2019-04-20T08:28:01.652Z,8.37
2019-04-20T08:31:35.926Z,8.50
2019-04-20T08:34:49.030Z,8.43
2019-04-20T08:38:14.859Z,8.13
2019-04-20T08:40:59.670Z,8.27
2019-04-20T08:44:18.789Z,8.57
2019-04-20T08:47:35.119Z,7.87
2019-04-20T08:50:20.463Z,11.17
2019-04-20T08:53:27.637Z,10.10
2019-04-20T08:56:18.732Z,9.13
2019-04-20T08:59:13.863Z,8.30
2019-04-20T09:02:18.819Z,8.50
2019-04-20T09:05:34.734Z,8.03
2019-04-20T09:08:42.258Z,7.97
2019-04-20T09:11:57.679Z,8.83
2019-04-20T09:14:40.242Z,7.90
2019-04-20T09:17:54.096Z,8.40
2019-04-20T09:21:01.487Z,8.67
2019-04-20T09:24:22.685Z,8.37
2019-04-20T09:27:18.201Z,9.10
2019-04-20T09:30:25.788Z,8.80
2019-04-20T09:33:41.767Z,8.10
2019-04-20T09:36:53.822Z,8.43
2019-04-20T09:40:21.299Z,9.50
2019-04-20T09:43:13.983Z,8.23
2019-04-20T09:46:16.156Z,8.43
2019-04-20T09:49:34.390Z,8.40
2019-04-20T09:52:38.186Z,8.20
2019-04-20T09:55:46.866Z,8.57
2019-04-20T09:58:55.211Z,8.47
2019-04-20T10:01:45.954Z,8.90
2019-04-20T10:04:45.504Z,9.07
2019-04-20T10:07:55.961Z,8.60
2019-04-20T10:10:54.439Z,9.20
2019-04-20T10:13:59.292Z,9.10
2019-04-20T10:17:02.733Z,8.80
2019-04-20T10:20:12.812Z,8.73
2019-04-20T10:23:12.574Z,8.87
2019-04-20T10:26:16.453Z,9.60
2019-04-20T10:29:20.069Z,8.70
2019-04-20T10:32:31.077Z,8.77
2019-04-20T10:35:29.737Z,9.33
2019-04-20T10:38:35.895Z,8.77
2019-04-20T10:41:46.960Z,9.60
2019-04-20T10:44:45.084Z,8.70
2019-04-20T10:47:48.617Z,9.33
2019-04-20T10:50:52.795Z,9.03
2019-04-20T10:53:56.291Z,9.20
2019-04-20T10:56:59.830Z,9.30
2019-04-20T11:00:05.834Z,9.87
2019-04-20T11:03:10.591Z,9.13
2019-04-20T11:06:14.519Z,9.27
2019-04-20T11:09:18.502Z,9.53
2019-04-20T11:12:22.177Z,8.80
2019-04-20T11:15:26.209Z,9.53
2019-04-20T11:18:29.768Z,9.37
2019-04-20T11:21:34.362Z,9.20
2019-04-20T11:24:38.564Z,9.07
2019-04-20T11:27:43.851Z,8.33
2019-04-20T11:30:48.066Z,9.43
2019-04-20T11:34:15.018Z,8.17
2019-04-20T11:37:17.259Z,9.63
2019-04-20T11:40:21.126Z,8.93
2019-04-20T11:43:25.988Z,8.93
2019-04-20T11:46:30.494Z,7.93
2019-04-20T11:49:35.373Z,8.30
2019-04-20T11:52:43.845Z,8.77
2019-04-20T11:55:44.585Z,9.57
2019-04-20T11:58:49.091Z,9.80
2019-04-20T12:02:05.800Z,8.30
2019-04-20T12:05:21.096Z,8.63
2019-04-20T12:08:16.650Z,8.83
2019-04-20T12:11:30.382Z,7.90
2019-04-20T12:14:25.341Z,8.37
2019-04-20T12:17:29.347Z,8.30
2019-04-20T12:20:32.987Z,8.70
2019-04-20T12:23:36.467Z,8.87
2019-04-20T12:26:40.592Z,9.53
2019-04-20T12:29:44.144Z,9.03
2019-04-20T12:32:52.659Z,9.50
2019-04-20T12:35:54.225Z,9.00
2019-04-20T12:38:59.087Z,8.77
2019-04-20T12:42:07.269Z,9.63
2019-04-20T12:45:11.359Z,8.80
2019-04-20T12:48:15.626Z,9.03
2019-04-20T12:51:19.682Z,8.93
2019-04-20T12:54:23.251Z,8.50
2019-04-20T12:57:26.873Z,8.87
2019-04-20T13:00:45.907Z,9.10
2019-04-20T13:03:49.876Z,9.60
2019-04-20T13:06:55.206Z,8.73
2019-04-20T13:10:01.904Z,8.40
2019-04-20T13:13:05.827Z,9.37
2019-04-20T13:16:12.250Z,9.63
2019-04-20T13:19:17.190Z,13.70
2019-04-20T13:22:21.121Z,9.00
2019-04-20T13:25:25.088Z,8.10
2019-04-20T13:28:30.713Z,8.77
2019-04-20T13:31:34.597Z,9.03
2019-04-20T13:34:40.311Z,8.70
2019-04-20T13:37:45.129Z,8.50
2019-04-20T13:40:49.260Z,8.33
2019-04-20T13:43:54.843Z,9.47
2019-04-20T13:46:58.821Z,9.50
2019-04-20T13:50:03.294Z,8.43
2019-04-20T13:53:07.401Z,8.37
2019-04-20T13:56:11.823Z,8.63
2019-04-20T13:59:30.018Z,8.07
2019-04-20T14:02:44.748Z,8.53
2019-04-20T14:05:48.799Z,9.13
2019-04-20T14:08:53.649Z,8.80
2019-04-20T14:12:10.311Z,8.30
2019-04-20T14:15:02.913Z,8.53
2019-04-20T14:18:06.976Z,7.47
2019-04-20T14:21:11.930Z,8.30
2019-04-20T14:24:16.992Z,8.70
2019-04-20T14:27:21.309Z,7.83
2019-04-20T14:30:24.915Z,8.80
2019-04-20T14:33:28.604Z,8.33
2019-04-20T14:36:32.901Z,8.97
2019-04-20T14:39:36.479Z,8.40
2019-04-20T14:42:46.438Z,8.13
2019-04-20T14:45:45.136Z,9.00
2019-04-20T14:48:49.039Z,8.60
2019-04-20T14:51:54.624Z,8.70
2019-04-20T14:54:57.737Z,8.90
2019-04-20T14:58:03.697Z,8.67
2019-04-20T15:01:09.342Z,8.73
2019-04-20T15:04:16.785Z,8.90
2019-04-20T15:07:18.413Z,9.03
2019-04-20T15:10:22.702Z,8.93
2019-04-20T15:13:26.764Z,9.57
2019-04-20T15:16:30.724Z,9.40
2019-04-20T15:19:35.985Z,10.03
2019-04-20T15:22:43.761Z,8.80
2019-04-20T15:25:48.545Z,9.83
2019-04-20T15:28:52.541Z,8.23
2019-04-20T15:31:56.505Z,9.13
2019-04-20T15:35:00.696Z,8.63
2019-04-20T15:38:05.124Z,8.93
2019-04-20T15:41:12.117Z,9.57
2019-04-20T15:44:15.264Z,9.13
2019-04-20T15:47:20.073Z,9.47
2019-04-20T15:50:23.765Z,9.10
2019-04-20T15:53:27.186Z,8.67
2019-04-20T15:56:30.654Z,8.83
2019-04-20T15:59:34.728Z,9.00
2019-04-20T16:02:41.232Z,9.17
2019-04-20T16:05:49.406Z,10.47
2019-04-20T16:08:54.573Z,10.00
2019-04-20T16:11:59.123Z,8.60
2019-04-20T16:15:03.935Z,8.93
2019-04-20T16:18:07.527Z,9.23
2019-04-20T16:21:17.839Z,9.87
2019-04-20T16:24:16.923Z,9.07
2019-04-20T16:27:31.764Z,9.20
2019-04-20T16:30:35.884Z,9.60
2019-04-20T16:33:39.437Z,8.93
2019-04-20T16:36:44.358Z,8.80
2019-04-20T16:39:48.350Z,8.67
2019-04-20T16:42:52.155Z,9.17
2019-04-20T16:45:55.654Z,8.87
2019-04-20T16:48:59.111Z,9.67
2019-04-20T16:52:03.016Z,9.63
2019-04-20T16:55:08.107Z,8.80
2019-04-20T16:58:13.377Z,11.53
2019-04-20T17:01:17.242Z,8.53
2019-04-20T17:04:22.991Z,8.10
2019-04-20T17:07:31.200Z,9.37
2019-04-20T17:10:34.911Z,9.20
2019-04-20T17:13:44.175Z,8.60
2019-04-20T17:16:43.856Z,9.23
2019-04-20T17:19:47.481Z,8.57
2019-04-20T17:22:50.939Z,8.27
2019-04-20T17:25:55.673Z,9.00
2019-04-20T17:29:18.093Z,8.77
2019-04-20T17:32:23.410Z,8.70
2019-04-20T17:35:37.974Z,8.93
2019-04-20T17:38:38.602Z,8.43
2019-04-20T17:41:56.323Z,8.47
2019-04-20T17:44:53.050Z,8.47
2019-04-20T17:48:07.250Z,8.60
2019-04-20T17:51:13.931Z,8.80
2019-04-20T17:54:17.589Z,7.90
2019-04-20T17:57:21.554Z,8.00
2019-04-20T18:00:29.933Z,8.33
2019-04-20T18:06:56.732Z,7.87
2019-04-20T18:10:09.793Z,7.67
2019-04-20T18:12:56.557Z,7.97
2019-04-20T18:16:22.221Z,7.97
2019-04-20T18:19:13.272Z,8.00
2019-04-20T18:22:13.846Z,7.97
2019-04-20T18:25:41.700Z,8.20
2019-04-20T18:28:39.998Z,7.57
2019-04-20T18:31:39.579Z,8.10
2019-04-20T18:34:53.024Z,8.20
2019-04-20T18:38:00.813Z,7.40
2019-04-20T18:41:05.781Z,7.83
2019-04-20T18:44:04.524Z,7.83
2019-04-20T18:47:31.795Z,8.17
2019-04-20T18:50:22.939Z,8.70
2019-04-20T18:53:28.737Z,8.43
2019-04-20T18:56:31.051Z,8.80
2019-04-20T18:59:39.959Z,8.80
2019-04-20T19:02:40.956Z,8.10
2019-04-20T19:05:42.134Z,8.97
2019-04-20T19:08:49.979Z,9.40
2019-04-20T19:12:00.018Z,9.10
2019-04-20T19:15:19.724Z,9.80
2019-04-20T19:18:23.809Z,9.50
2019-04-20T19:21:15.215Z,10.20
2019-04-20T19:24:21.811Z,9.53
2019-04-20T19:27:33.646Z,9.27
2019-04-20T19:30:39.857Z,9.00
2019-04-20T19:33:57.446Z,9.23
2019-04-20T19:36:53.401Z,9.37
2019-04-20T19:40:00.984Z,9.53
2019-04-20T19:43:02.418Z,9.67
2019-04-20T19:46:35.404Z,8.97
2019-04-20T19:49:14.247Z,9.67
2019-04-20T19:52:43.337Z,9.07
2019-04-20T19:55:27.375Z,10.23
2019-04-20T19:58:28.067Z,10.10
2019-04-20T20:01:22.055Z,10.53
2019-04-20T20:04:25.909Z,10.27
2019-04-20T20:07:37.525Z,10.80
2019-04-20T20:10:38.036Z,11.70
2019-04-20T20:13:44.679Z,10.80
2019-04-20T20:17:04.946Z,11.90
2019-04-20T20:20:14.634Z,11.90
2019-04-20T20:22:58.254Z,11.27
2019-04-20T20:26:02.306Z,11.10
2019-04-20T20:29:17.022Z,11.53
2019-04-20T20:32:21.379Z,10.43
2019-04-20T20:35:23.550Z,10.97
2019-04-20T20:38:28.098Z,10.67
2019-04-20T20:41:31.695Z,10.97
2019-04-20T20:44:44.085Z,10.57
2019-04-20T20:47:53.741Z,11.97
2019-04-20T20:50:58.548Z,11.20
2019-04-20T20:53:59.015Z,11.03
2019-04-20T20:57:01.451Z,11.60
2019-04-20T21:00:03.560Z,10.80
2019-04-20T21:03:06.026Z,10.40
2019-04-20T21:06:09.571Z,10.30
2019-04-20T21:09:14.448Z,11.30
2019-04-20T21:12:19.912Z,10.50
2019-04-20T21:15:26.067Z,9.57
2019-04-20T21:18:49.049Z,9.93
2019-04-20T21:21:44.316Z,10.23
2019-04-20T21:24:46.728Z,10.07
2019-04-20T21:27:48.709Z,9.43
2019-04-20T21:30:53.552Z,10.17
2019-04-20T21:34:02.827Z,9.20
2019-04-20T21:37:11.591Z,9.33
2019-04-20T21:40:21.346Z,8.83
2019-04-20T21:43:14.589Z,9.47
2019-04-20T21:46:18.958Z,10.43
2019-04-20T21:49:37.617Z,9.63
2019-04-20T21:52:36.370Z,11.77
2019-04-20T21:55:34.114Z,11.20
2019-04-20T21:58:43.543Z,11.80
2019-04-20T22:01:56.368Z,11.33
2019-04-20T22:04:49.278Z,11.30
2019-04-20T22:07:57.695Z,11.33
2019-04-20T22:10:58.087Z,10.53
2019-04-20T22:14:09.232Z,10.50
2019-04-20T22:17:07.849Z,9.67
2019-04-20T22:20:20.122Z,9.93
2019-04-20T22:23:36.394Z,8.87
2019-04-20T22:26:30.990Z,9.50
2019-04-20T22:29:28.063Z,8.37
2019-04-20T22:32:32.260Z,8.43
2019-04-20T22:35:42.660Z,7.97
2019-04-20T22:39:01.296Z,7.47
2019-04-20T22:42:08.987Z,7.83
2019-04-20T22:45:13.694Z,7.97
2019-04-20T22:48:17.657Z,7.97
2019-04-20T22:51:34.283Z,8.57
2019-04-20T22:54:40.419Z,8.67
2019-04-20T22:57:47.501Z,7.87
2019-04-20T23:00:43.188Z,8.77
2019-04-20T23:03:41.162Z,8.23
2019-04-20T23:06:48.546Z,7.83
2019-04-20T23:09:53.991Z,8.07
2019-04-20T23:12:59.194Z,8.00
2019-04-20T23:16:02.271Z,7.10
2019-04-20T23:19:05.793Z,7.30
2019-04-20T23:22:13.515Z,7.57
2019-04-20T23:25:15.366Z,7.03
2019-04-20T23:28:20.626Z,6.77
2019-04-20T23:31:26.683Z,7.17
2019-04-20T23:34:32.360Z,7.23
2019-04-20T23:37:36.987Z,6.90
2019-04-20T23:40:39.728Z,7.03
2019-04-20T23:43:45.277Z,6.70
2019-04-20T23:47:01.171Z,7.07
2019-04-20T23:50:17.617Z,6.93
2019-04-20T23:53:24.313Z,6.87
2019-04-20T23:56:17.502Z,7.77
2019-04-20T23:59:25.217Z,7.47
